Time;durP1;ratioP1;P1;durP2;ratioP2;P2;SDS_P1;SDS_P2;PMS_P1;PMS_P2;Temp;Humidity;BMP_temperature;BMP_pressure;BME280_temperature;BME280_humidity;BME280_pressure;Samples;Min_cycle;Max_cycle;Signal;HPM_P1;HPM_P2
2023/04/01 00:01:54;;;;;;;17.10;5.18;;;;;;;8.14;100.00;99033.38;5053984;28;20044;-57
2023/04/01 00:04:20;;;;;;;15.43;4.63;;;;;;;8.15;100.00;99024.00;5054447;28;20137;-57
2023/04/01 00:06:47;;;;;;;13.68;4.80;;;;;;;8.14;100.00;99023.13;5054843;28;20112;-54
2023/04/01 00:09:13;;;;;;;17.00;4.40;;;;;;;8.14;100.00;99029.97;5053941;28;20096;-55
2023/04/01 00:11:38;;;;;;;12.90;4.55;;;;;;;8.13;100.00;99023.13;5054213;28;20036;-55
2023/04/01 00:14:04;;;;;;;15.35;5.03;;;;;;;8.14;100.00;99028.25;5054349;28;20385;-57
2023/04/01 00:16:30;;;;;;;12.10;4.88;;;;;;;8.13;100.00;99025.69;5054212;28;20017;-57
2023/04/01 00:18:55;;;;;;;19.02;5.90;;;;;;;8.14;100.00;99032.53;5054049;28;20530;-57
2023/04/01 00:21:22;;;;;;;16.13;4.82;;;;;;;8.12;100.00;99034.22;5054312;28;20384;-57
2023/04/01 00:23:47;;;;;;;15.48;5.15;;;;;;;8.11;100.00;99038.50;5053809;28;20457;-55
2023/04/01 00:26:14;;;;;;;15.27;5.55;;;;;;;8.10;100.00;99026.50;5053837;28;20102;-55
2023/04/01 00:28:41;;;;;;;11.45;6.30;;;;;;;8.11;100.00;99038.50;5054359;28;20082;-54
2023/04/01 00:31:08;;;;;;;12.57;5.68;;;;;;;8.11;100.00;99041.06;5053623;28;20036;-55
2023/04/01 00:33:33;;;;;;;11.70;6.00;;;;;;;8.11;100.00;99037.63;5053909;28;20447;-55
2023/04/01 00:36:17;;;;;;;11.57;5.78;;;;;;;8.10;100.00;99044.47;5053897;28;20017;-55
2023/04/01 00:38:43;;;;;;;13.27;5.72;;;;;;;8.10;100.00;99041.91;5053776;28;20032;-55
2023/04/01 00:41:14;;;;;;;13.63;6.00;;;;;;;8.10;100.00;99041.91;5053737;28;20033;-55
2023/04/01 00:43:40;;;;;;;13.75;6.78;;;;;;;8.10;100.00;99041.91;5053394;28;20448;-55
2023/04/01 00:46:05;;;;;;;11.73;6.35;;;;;;;8.09;100.00;99053.00;5053476;28;20090;-55
2023/04/01 00:48:35;;;;;;;11.80;7.30;;;;;;;8.11;100.00;99061.59;5054066;28;20536;-55
2023/04/01 00:51:14;;;;;;;14.15;8.00;;;;;;;8.12;100.00;99060.75;5052973;28;20040;-55
2023/04/01 00:53:43;;;;;;;14.35;8.48;;;;;;;8.12;100.00;99065.88;5053439;28;20029;-55
2023/04/01 00:56:22;;;;;;;15.52;8.63;;;;;;;8.14;100.00;99069.31;5053462;28;20032;-55
2023/04/01 00:58:54;;;;;;;17.08;9.52;;;;;;;8.14;100.00;99063.34;5053314;28;20060;-55
2023/04/01 01:01:22;;;;;;;18.25;10.05;;;;;;;8.14;100.00;99073.59;5053217;28;20083;-55
2023/04/01 01:03:47;;;;;;;16.40;11.32;;;;;;;8.14;100.00;99063.34;5053603;28;20037;-55
2023/04/01 01:06:23;;;;;;;16.13;10.95;;;;;;;8.14;100.00;99069.31;5052862;28;20036;-55
2023/04/01 01:08:56;;;;;;;15.30;11.20;;;;;;;8.15;100.00;99068.47;5053603;28;20109;-55
2023/04/01 01:11:35;;;;;;;18.17;11.88;;;;;;;8.12;100.00;99065.88;5053621;28;20036;-55
2023/04/01 01:14:06;;;;;;;18.23;12.82;;;;;;;8.11;100.00;99059.03;5052854;28;20422;-54
2023/04/01 01:16:41;;;;;;;16.20;12.38;;;;;;;8.14;100.00;99079.56;5053568;28;20032;-55
2023/04/01 01:19:35;;;;;;;17.92;13.35;;;;;;;8.14;100.00;99074.44;5052653;28;20032;-54
2023/04/01 01:22:21;;;;;;;17.83;12.65;;;;;;;8.14;100.00;99073.59;5052972;28;20031;-54
2023/04/01 01:25:28;;;;;;;17.80;13.57;;;;;;;8.14;100.00;99078.72;5053334;28;20025;-55
2023/04/01 01:28:29;;;;;;;18.53;13.43;;;;;;;8.15;100.00;99076.16;5052625;28;20029;-54
2023/04/01 01:31:00;;;;;;;17.50;13.18;;;;;;;8.12;100.00;99078.72;5052665;28;20112;-55
2023/04/01 01:33:34;;;;;;;20.77;14.95;;;;;;;8.12;100.00;99076.16;5052092;28;20489;-55
2023/04/01 01:36:05;;;;;;;17.30;14.27;;;;;;;8.11;100.00;99077.00;5052597;28;20028;-55
2023/04/01 01:38:34;;;;;;;20.33;15.55;;;;;;;8.11;100.00;99083.81;5053222;28;20021;-54
2023/04/01 01:41:03;;;;;;;20.30;15.65;;;;;;;8.11;100.00;99088.94;5051967;28;20047;-54
2023/04/01 01:43:37;;;;;;;21.08;16.35;;;;;;;8.11;100.00;99081.25;5052982;28;20037;-53
2023/04/01 01:46:09;;;;;;;21.27;16.90;;;;;;;8.09;100.00;99091.50;5052625;28;20017;-54
2023/04/01 01:48:35;;;;;;;23.33;17.98;;;;;;;8.09;100.00;99086.38;5052538;28;20103;-55
2023/04/01 01:51:01;;;;;;;22.85;18.13;;;;;;;8.08;100.00;99087.19;5052333;28;20016;-55
2023/04/01 01:53:26;;;;;;;25.10;18.75;;;;;;;8.07;100.00;99088.91;5052834;28;20047;-54
2023/04/01 01:55:52;;;;;;;26.95;20.55;;;;;;;8.07;100.00;99093.19;5052179;28;20024;-55
2023/04/01 01:58:42;;;;;;;25.92;20.48;;;;;;;8.08;100.00;99100.03;5052412;28;20021;-56
2023/04/01 02:01:15;;;;;;;28.15;21.23;;;;;;;8.05;100.00;99098.28;5051638;28;20435;-57
2023/04/01 02:03:42;;;;;;;28.02;22.05;;;;;;;8.04;100.00;99104.28;5052614;28;20090;-56
2023/04/01 02:06:11;;;;;;;30.95;22.90;;;;;;;8.04;100.00;99103.41;5052281;28;20380;-55
2023/04/01 02:08:41;;;;;;;28.05;20.98;;;;;;;8.03;100.00;99106.81;5052324;28;20106;-55
2023/04/01 02:11:10;;;;;;;24.55;19.58;;;;;;;8.02;100.00;99115.38;5052226;28;20028;-54
2023/04/01 02:13:51;;;;;;;24.40;19.10;;;;;;;8.00;100.00;99114.47;5052506;28;20473;-54
2023/04/01 02:16:26;;;;;;;24.50;15.75;;;;;;;7.99;100.00;99117.88;5051871;28;20029;-54
2023/04/01 02:18:54;;;;;;;20.48;16.33;;;;;;;7.96;100.00;99115.28;5052323;28;20384;-54
2023/04/01 02:21:20;;;;;;;;;;;;;;;8.00;100.00;99115.34;5052866;28;20461;-55
2023/04/01 02:23:47;;;;;;;19.27;14.15;;;;;;;7.93;100.00;99111.00;5052112;28;20426;-54
2023/04/01 02:26:14;;;;;;;19.13;12.73;;;;;;;7.89;100.00;99112.66;5051927;28;20033;-54
2023/04/01 02:28:41;;;;;;;22.43;13.87;;;;;;;7.88;100.00;99110.91;5052401;28;20423;-54
2023/04/01 02:31:10;;;;;;;22.80;14.00;;;;;;;7.87;100.00;99116.88;5051310;28;20279;-54
2023/04/01 02:33:37;;;;;;;20.77;13.95;;;;;;;7.84;100.00;99116.84;5052388;28;20082;-56
2023/04/01 02:36:04;;;;;;;20.75;15.70;;;;;;;7.86;100.00;99114.31;5051770;28;20024;-54
2023/04/01 02:38:29;;;;;;;20.85;16.48;;;;;;;7.85;100.00;99122.84;5052153;28;20438;-55
2023/04/01 02:41:00;;;;;;;22.98;17.38;;;;;;;7.84;100.00;99123.69;5052148;28;20476;-56
2023/04/01 02:43:27;;;;;;;25.55;18.23;;;;;;;7.84;100.00;99126.28;5051874;28;20518;-55
2023/04/01 02:45:53;;;;;;;26.38;19.08;;;;;;;7.83;100.00;99122.81;5052814;28;20028;-54
2023/04/01 02:48:18;;;;;;;30.25;19.60;;;;;;;7.82;100.00;99128.78;5055883;28;20482;-54
2023/04/01 02:50:43;;;;;;;31.25;20.17;;;;;;;7.82;100.00;99123.66;5055815;28;20029;-54
2023/04/01 02:53:09;;;;;;;29.42;20.63;;;;;;;7.82;100.00;99133.06;5055604;28;20025;-54
2023/04/01 02:55:34;;;;;;;34.05;22.02;;;;;;;7.83;100.00;99124.53;5056106;28;20487;-55
2023/04/01 02:58:00;;;;;;;30.63;20.50;;;;;;;7.82;100.00;99133.91;5055238;28;20449;-54
2023/04/01 03:00:26;;;;;;;34.40;21.90;;;;;;;7.81;100.00;99137.34;5055716;28;20487;-53
2023/04/01 03:02:52;;;;;;;32.83;22.05;;;;;;;7.81;100.00;99136.47;5055716;28;20063;-54
2023/04/01 03:05:18;;;;;;;31.50;21.20;;;;;;;7.80;100.00;99135.63;5055238;28;20102;-54
2023/04/01 03:07:43;;;;;;;33.55;22.13;;;;;;;7.78;100.00;99142.41;5055690;28;20067;-53
2023/04/01 03:10:09;;;;;;;33.85;22.90;;;;;;;7.79;100.00;99140.72;5055495;28;20083;-53
2023/04/01 03:12:35;;;;;;;38.38;23.55;;;;;;;7.78;100.00;99137.28;5055234;28;20047;-54
2023/04/01 03:15:00;;;;;;;40.13;24.25;;;;;;;7.77;100.00;99144.97;5055129;28;20037;-53
2023/04/01 03:17:25;;;;;;;40.20;24.45;;;;;;;7.76;100.00;99144.13;5055780;28;20472;-53
2023/04/01 03:19:51;;;;;;;42.33;24.88;;;;;;;7.76;100.00;99139.00;5055179;28;20028;-53
2023/04/01 03:22:16;;;;;;;39.38;24.48;;;;;;;7.78;100.00;99146.69;5055186;28;20053;-53
2023/04/01 03:24:41;;;;;;;39.80;25.02;;;;;;;7.75;100.00;99148.38;5055479;28;20358;-54
2023/04/01 03:27:07;;;;;;;38.17;25.13;;;;;;;7.75;100.00;99152.66;5054605;28;20053;-54
2023/04/01 03:29:32;;;;;;;40.72;24.50;;;;;;;7.74;100.00;99151.75;5055204;28;20017;-54
2023/04/01 03:31:58;;;;;;;37.72;23.90;;;;;;;7.75;100.00;99147.53;5055164;28;20372;-54
2023/04/01 03:34:24;;;;;;;37.65;22.02;;;;;;;7.73;100.00;99155.19;5054708;28;20029;-53
2023/04/01 03:36:51;;;;;;;34.20;21.88;;;;;;;7.75;100.00;99155.22;5055420;28;20024;-53
2023/04/01 03:39:18;;;;;;;35.10;20.90;;;;;;;7.73;100.00;99159.44;5054480;28;20021;-54
2023/04/01 03:41:44;;;;;;;36.28;22.25;;;;;;;7.73;100.00;99164.56;5054947;28;20381;-54
2023/04/01 03:44:09;;;;;;;31.48;19.98;;;;;;;7.72;100.00;99157.72;5054748;28;20080;-54
2023/04/01 03:46:35;;;;;;;29.40;18.35;;;;;;;7.71;100.00;99162.00;5054730;28;20416;-56
2023/04/01 03:49:00;;;;;;;28.77;17.45;;;;;;;7.70;100.00;99164.53;5054627;28;20194;-57
2023/04/01 03:51:26;;;;;;;21.77;14.70;;;;;;;7.68;100.00;99167.09;5055048;28;20032;-53
2023/04/01 03:53:51;;;;;;;21.40;14.77;;;;;;;7.68;100.00;99164.53;5054478;28;20017;-54
2023/04/01 03:56:16;;;;;;;24.13;15.77;;;;;;;7.69;100.00;99167.94;5054102;28;20583;-54
2023/04/01 03:58:42;;;;;;;21.25;14.18;;;;;;;7.69;100.00;99173.91;5054667;28;20029;-53
2023/04/01 04:01:34;;;;;;;22.70;15.52;;;;;;;7.70;100.00;99170.53;5053888;28;20036;-54
2023/04/01 04:04:00;;;;;;;23.77;16.20;;;;;;;7.69;100.00;99173.06;5053017;28;20045;-54
2023/04/01 04:06:26;;;;;;;21.48;15.48;;;;;;;7.68;100.00;99177.34;5054726;28;20025;-54
2023/04/01 04:08:52;;;;;;;19.95;14.68;;;;;;;7.67;100.00;99188.44;5054179;28;20029;-54
2023/04/01 04:11:18;;;;;;;18.15;13.80;;;;;;;7.66;100.00;99183.28;5053968;28;20036;-56
2023/04/01 04:13:44;;;;;;;19.95;14.23;;;;;;;7.66;100.00;99178.16;5054858;28;20048;-56
2023/04/01 04:16:09;;;;;;;16.38;11.70;;;;;;;7.62;100.00;99194.31;5053799;28;20396;-54
2023/04/01 04:18:36;;;;;;;17.83;12.45;;;;;;;7.62;100.00;99186.63;5054428;28;20028;-53
2023/04/01 04:21:02;;;;;;;17.42;12.52;;;;;;;7.61;100.00;99190.06;5054106;28;20021;-54
2023/04/01 04:23:29;;;;;;;16.08;11.75;;;;;;;7.58;100.00;99194.28;5053667;28;20025;-55
2023/04/01 04:26:05;;;;;;;15.88;11.52;;;;;;;7.59;100.00;99197.69;5054038;28;20032;-55
2023/04/01 04:28:31;;;;;;;18.33;12.52;;;;;;;7.60;100.00;99203.72;5053659;28;20033;-55
2023/04/01 04:30:56;;;;;;;16.20;12.07;;;;;;;7.55;100.00;99199.38;5053781;28;20032;-53
2023/04/01 04:33:23;;;;;;;16.65;12.27;;;;;;;7.54;100.00;99213.03;5054394;28;20025;-54
2023/04/01 04:35:50;;;;;;;17.75;13.30;;;;;;;7.54;100.00;99207.03;5053726;28;20111;-53
2023/04/01 04:38:15;;;;;;;21.95;13.52;;;;;;;7.52;100.00;99209.56;5053577;28;20025;-55
2023/04/01 04:40:42;;;;;;;17.02;12.40;;;;;;;7.51;100.00;99214.69;5054354;28;20098;-55
2023/04/01 04:43:11;;;;;;;17.30;12.30;;;;;;;7.51;100.00;99212.13;5053223;28;20032;-57
2023/04/01 04:45:36;;;;;;;16.40;12.07;;;;;;;7.51;100.00;99209.56;5053901;28;20074;-56
2023/04/01 04:48:02;;;;;;;16.38;11.65;;;;;;;7.49;100.00;99213.78;5053526;28;20021;-56
2023/04/01 04:50:27;;;;;;;15.57;11.15;;;;;;;7.48;100.00;99215.50;5053281;28;20032;-56
2023/04/01 04:52:52;;;;;;;17.33;11.38;;;;;;;7.47;100.00;99216.31;5053518;28;20036;-52
2023/04/01 04:55:18;;;;;;;15.77;10.90;;;;;;;7.46;100.00;99219.72;5053956;28;20036;-54
2023/04/01 04:57:43;;;;;;;16.27;11.18;;;;;;;7.45;100.00;99223.16;5053438;28;20028;-54
2023/04/01 05:00:10;;;;;;;15.70;10.60;;;;;;;7.45;100.00;99229.94;5053383;28;20178;-56
2023/04/01 05:02:36;;;;;;;15.20;10.77;;;;;;;7.44;100.00;99234.22;5053579;28;20406;-56
2023/04/01 05:05:01;;;;;;;18.35;11.98;;;;;;;7.43;100.00;99237.63;5053222;28;20437;-57
2023/04/01 05:07:26;;;;;;;16.40;12.27;;;;;;;7.43;100.00;99229.94;5053230;28;20552;-56
2023/04/01 05:09:52;;;;;;;16.23;11.73;;;;;;;7.44;100.00;99238.47;5053048;28;20035;-57
2023/04/01 05:12:17;;;;;;;16.65;11.52;;;;;;;7.44;100.00;99246.16;5052427;28;20376;-54
2023/04/01 05:14:42;;;;;;;17.92;12.32;;;;;;;7.43;100.00;99247.88;5053240;28;20104;-53
2023/04/01 05:17:10;;;;;;;16.55;11.32;;;;;;;7.44;100.00;99252.19;5053092;28;20099;-55
2023/04/01 05:19:35;;;;;;;16.40;12.10;;;;;;;7.44;100.00;99257.31;5052636;28;20033;-54
2023/04/01 05:22:01;;;;;;;17.67;11.80;;;;;;;7.43;100.00;99258.13;5052902;28;20024;-56
2023/04/01 05:24:26;;;;;;;18.90;13.02;;;;;;;7.45;100.00;99258.16;5053622;28;20530;-55
2023/04/01 05:26:51;;;;;;;17.60;12.98;;;;;;;7.44;100.00;99265.00;5052445;28;20151;-56
2023/04/01 05:29:16;;;;;;;16.70;12.40;;;;;;;7.44;100.00;99264.09;5053014;28;20037;-54
2023/04/01 05:31:42;;;;;;;16.50;12.05;;;;;;;7.44;100.00;99272.69;5052624;28;20021;-55
2023/04/01 05:34:07;;;;;;;17.55;12.02;;;;;;;7.44;100.00;99277.81;5052382;28;20473;-55
2023/04/01 05:36:33;;;;;;;18.67;12.38;;;;;;;7.45;100.00;99283.78;5053021;28;20035;-54
2023/04/01 05:38:58;;;;;;;18.35;12.27;;;;;;;7.45;100.00;99282.09;5052734;28;20025;-56
2023/04/01 05:41:23;;;;;;;17.25;12.07;;;;;;;7.45;100.00;99291.47;5053215;28;20032;-57
2023/04/01 05:43:49;;;;;;;17.65;12.07;;;;;;;7.44;100.00;99288.06;5053045;28;20025;-56
2023/04/01 05:46:15;;;;;;;19.27;12.32;;;;;;;7.46;100.00;99295.78;5052120;28;20120;-55
2023/04/01 05:48:40;;;;;;;17.55;13.00;;;;;;;7.47;100.00;99305.19;5052699;28;20029;-56
2023/04/01 05:51:05;;;;;;;18.77;13.20;;;;;;;7.47;100.00;99293.22;5052410;28;20021;-56
2023/04/01 05:53:31;;;;;;;18.95;12.52;;;;;;;7.49;100.00;99309.50;5052460;28;20029;-56
2023/04/01 05:55:56;;;;;;;20.30;14.13;;;;;;;7.49;100.00;99312.06;5052442;28;20449;-54
2023/04/01 05:58:22;;;;;;;22.33;15.73;;;;;;;7.51;100.00;99307.81;5052817;28;20056;-55
2023/04/01 06:00:47;;;;;;;27.33;17.42;;;;;;;7.52;100.00;99306.13;5052322;28;20061;-55
2023/04/01 06:03:12;;;;;;;29.73;18.35;;;;;;;7.55;100.00;99314.75;5051859;28;20433;-56
2023/04/01 06:05:43;;;;;;;30.63;20.30;;;;;;;7.56;100.00;99319.00;5052544;28;20021;-56
2023/04/01 06:08:17;;;;;;;30.95;21.23;;;;;;;7.58;100.00;99330.16;5052039;28;20017;-57
2023/04/01 06:10:42;;;;;;;34.70;22.48;;;;;;;7.61;100.00;99334.50;5052629;28;20096;-56
2023/04/01 06:13:21;;;;;;;38.87;23.90;;;;;;;7.63;100.00;99331.94;5052208;28;20109;-57
2023/04/01 06:16:20;;;;;;;37.00;23.63;;;;;;;7.67;100.00;99333.72;5052024;28;20271;-57
2023/04/01 06:19:05;;;;;;;41.22;25.83;;;;;;;7.67;100.00;99349.09;5052664;28;20035;-57
2023/04/01 06:21:49;;;;;;;39.05;25.27;;;;;;;7.68;100.00;99343.16;5055727;28;20040;-55
2023/04/01 06:24:24;;;;;;;37.70;25.08;;;;;;;7.72;100.00;99357.75;5056109;28;20052;-56
2023/04/01 06:27:18;;;;;;;38.90;25.02;;;;;;;7.72;100.00;99360.31;5056569;28;20033;-56
2023/04/01 06:30:08;;;;;;;36.20;23.58;;;;;;;7.74;100.00;99353.50;5055778;28;20032;-57
2023/04/01 06:32:57;;;;;;;35.22;24.20;;;;;;;7.73;100.00;99359.47;5056412;28;20103;-57
2023/04/01 06:35:57;;;;;;;38.17;24.15;;;;;;;7.75;100.00;99370.63;5056104;28;20055;-57
2023/04/01 06:38:35;;;;;;;39.08;25.10;;;;;;;7.75;100.00;99378.31;5036642;28;20041;-57
2023/04/01 06:41:32;;;;;;;38.65;25.33;;;;;;;7.81;100.00;99369.88;5055916;28;20025;-56
2023/04/01 06:44:23;;;;;;;41.80;25.92;;;;;;;7.82;100.00;99379.28;5055140;28;20563;-55
2023/04/01 06:47:01;;;;;;;46.55;28.48;;;;;;;7.83;100.00;99381.88;5056101;28;20446;-55
2023/04/01 06:50:04;;;;;;;49.85;29.13;;;;;;;7.86;100.00;99384.50;5055645;28;20024;-54
2023/04/01 06:52:59;;;;;;;50.90;29.75;;;;;;;7.87;100.00;99382.78;5055940;28;20028;-55
2023/04/01 06:55:40;;;;;;;53.60;30.38;;;;;;;7.90;100.00;99391.41;5056266;28;20031;-54
2023/04/01 06:58:18;;;;;;;54.97;32.33;;;;;;;7.90;100.00;99399.09;5055165;28;20028;-54
2023/04/01 07:00:48;;;;;;;58.80;31.58;;;;;;;7.95;100.00;99400.88;5055812;28;20451;-55
2023/04/01 07:03:38;;;;;;;60.15;34.50;;;;;;;7.95;100.00;99406.00;5054935;28;20122;-56
2023/04/01 07:06:31;;;;;;;57.85;32.88;;;;;;;7.97;100.00;99409.47;5055406;28;20028;-56
2023/04/01 07:09:00;;;;;;;57.83;33.80;;;;;;;8.00;100.00;99414.66;5053774;28;20079;-55
2023/04/01 07:11:32;;;;;;;59.45;33.92;;;;;;;8.03;100.00;99414.69;5055239;28;20024;-55
2023/04/01 07:14:16;;;;;;;55.40;31.65;;;;;;;8.05;100.00;99423.28;5055163;28;20079;-55
2023/04/01 07:16:47;;;;;;;56.13;31.58;;;;;;;8.09;100.00;99425.06;5055712;28;20083;-55
2023/04/01 07:19:27;;;;;;;57.33;32.72;;;;;;;8.16;100.00;99426.03;5054601;28;20032;-55
2023/04/01 07:22:01;;;;;;;58.40;31.38;;;;;;;8.17;100.00;99430.31;5055393;28;20041;-54
2023/04/01 07:24:36;;;;;;;65.03;30.83;;;;;;;8.16;100.00;99426.91;5054849;28;20032;-51
2023/04/01 07:27:02;;;;;;;49.13;27.55;;;;;;;8.16;100.00;99442.31;5054838;28;20029;-51
2023/04/01 07:29:27;;;;;;;53.65;29.92;;;;;;;8.18;100.00;99437.19;5055340;28;20401;-51
2023/04/01 07:31:53;;;;;;;47.33;27.65;;;;;;;8.19;100.00;99432.06;5054063;28;20067;-51
2023/04/01 07:34:26;;;;;;;50.00;29.33;;;;;;;8.22;100.00;99452.69;5055051;28;20033;-51
2023/04/01 07:37:13;;;;;;;48.78;27.38;;;;;;;8.27;100.00;99454.44;5055234;28;20031;-53
2023/04/01 07:40:04;;;;;;;48.17;26.98;;;;;;;8.38;100.00;99461.47;5054647;28;20055;-52
2023/04/01 07:42:48;;;;;;;47.05;26.80;;;;;;;8.51;100.00;99462.56;5053906;28;20172;-52
2023/04/01 07:45:50;;;;;;;39.55;24.42;;;;;;;8.63;100.00;99461.03;5054844;28;20037;-52
2023/04/01 07:48:31;;;;;;;40.28;23.40;;;;;;;8.64;100.00;99475.63;5054496;28;20491;-52
2023/04/01 07:51:28;;;;;;;39.58;23.80;;;;;;;8.74;100.00;99477.47;5054645;28;20464;-52
2023/04/01 07:54:39;;;;;;;42.05;25.65;;;;;;;8.72;100.00;99476.59;5053861;28;20063;-52
2023/04/01 07:57:11;;;;;;;45.10;27.25;;;;;;;8.68;100.00;99473.09;5049137;28;20037;-52
2023/04/01 08:00:00;;;;;;;41.22;25.88;;;;;;;8.71;100.00;99487.69;5054386;28;20035;-52
2023/04/01 08:02:51;;;;;;;42.00;25.77;;;;;;;8.67;100.00;99491.91;5054394;28;20126;-52
2023/04/01 08:05:35;;;;;;;45.33;27.10;;;;;;;8.72;100.00;99489.44;5054572;28;20021;-52
2023/04/01 08:08:18;;;;;;;41.08;26.30;;;;;;;8.72;100.00;99497.13;5053517;28;20052;-53
2023/04/01 08:10:52;;;;;;;36.80;24.50;;;;;;;8.73;100.00;99496.31;5054599;28;20032;-50
2023/04/01 08:13:35;;;;;;;39.13;24.60;;;;;;;8.80;100.00;99500.66;5054080;28;20503;-51
2023/04/01 08:16:20;;;;;;;41.47;24.98;;;;;;;8.81;100.00;99509.25;5054139;28;20020;-51
2023/04/01 08:18:51;;;;;;;38.88;25.55;;;;;;;8.85;100.00;99511.88;5054587;28;20025;-52
2023/04/01 08:21:23;;;;;;;37.15;25.35;;;;;;;8.90;100.00;99520.53;5053623;28;20051;-52
2023/04/01 08:23:52;;;;;;;40.85;26.45;;;;;;;8.96;100.00;99517.19;5054372;28;20025;-52
2023/04/01 08:26:41;;;;;;;41.88;25.85;;;;;;;9.03;100.00;99513.84;5054176;28;20090;-50
2023/04/01 08:29:15;;;;;;;39.53;24.65;;;;;;;9.03;100.00;99519.00;5053244;28;20029;-51
2023/04/01 08:31:43;;;;;;;34.97;23.77;;;;;;;9.04;100.00;99527.59;5053987;28;20021;-52
2023/04/01 08:34:18;;;;;;;38.50;24.83;;;;;;;9.05;100.00;99526.72;5054085;28;20108;-52
2023/04/01 08:36:50;;;;;;;34.25;23.60;;;;;;;9.06;100.00;99531.91;5053493;28;20043;-52
2023/04/01 08:39:24;;;;;;;33.33;23.58;;;;;;;9.13;100.00;99537.13;5053728;28;20488;-52
2023/04/01 08:42:11;;;;;;;33.35;22.60;;;;;;;9.15;100.00;99538.88;5053233;28;20476;-52
2023/04/01 08:45:00;;;;;;;30.03;22.03;;;;;;;9.12;100.00;99538.81;5052969;28;20111;-50
2023/04/01 08:47:52;;;;;;;32.58;23.27;;;;;;;9.14;100.00;99543.97;5054118;28;20037;-52
2023/04/01 08:50:46;;;;;;;37.05;23.80;;;;;;;9.20;100.00;99549.22;5052715;28;20037;-51
2023/04/01 08:53:35;;;;;;;34.25;22.55;;;;;;;9.16;100.00;99557.75;5053560;28;20052;-52
2023/04/01 08:56:40;;;;;;;32.25;21.65;;;;;;;9.16;100.00;99553.44;5053081;28;20025;-50
2023/04/01 08:59:27;;;;;;;29.60;21.05;;;;;;;9.13;100.00;99573.97;5053412;28;20040;-52
2023/04/01 09:01:58;;;;;;;31.73;21.53;;;;;;;9.10;100.00;99571.34;5053625;28;20123;-52
2023/04/01 09:04:39;;;;;;;31.15;22.65;;;;;;;9.06;100.00;99577.28;5052880;28;20090;-52
2023/04/01 09:07:28;;;;;;;29.88;21.23;;;;;;;8.94;100.00;99577.13;5053236;28;20016;-52
2023/04/01 09:10:31;;;;;;;32.10;23.13;;;;;;;8.96;100.00;99585.69;5053002;28;20051;-52
2023/04/01 09:13:30;;;;;;;33.00;22.55;;;;;;;8.90;100.00;99592.47;5046354;28;20086;-52
2023/04/01 09:16:07;;;;;;;37.17;24.50;;;;;;;8.89;100.00;99595.88;5053011;28;20453;-51
2023/04/01 09:18:56;;;;;;;35.38;24.05;;;;;;;8.99;100.00;99591.75;5052848;28;20131;-52
2023/04/01 09:21:45;;;;;;;37.05;23.92;;;;;;;9.08;100.00;99593.59;5053384;28;20036;-53
2023/04/01 09:24:21;;;;;;;36.95;23.67;;;;;;;9.11;100.00;99587.66;5052574;28;20033;-53
2023/04/01 09:27:04;;;;;;;32.63;22.27;;;;;;;9.17;100.00;99600.59;5053008;28;20373;-53
2023/04/01 09:29:59;;;;;;;33.75;23.02;;;;;;;9.17;100.00;99600.59;5053042;28;20104;-53
2023/04/01 09:32:42;;;;;;;33.40;21.73;;;;;;;9.13;100.00;99612.53;5052542;28;20021;-52
2023/04/01 09:35:40;;;;;;;30.45;22.60;;;;;;;9.18;100.00;99618.63;5052855;28;20040;-53
2023/04/01 09:38:08;;;;;;;26.35;19.33;;;;;;;9.11;100.00;99616.78;5052107;28;20146;-52
2023/04/01 09:41:02;;;;;;;26.02;18.45;;;;;;;9.26;100.00;99615.28;5053037;28;20032;-53
2023/04/01 09:43:28;;;;;;;25.70;18.48;;;;;;;9.34;100.00;99616.28;5052983;28;20473;-53
2023/04/01 09:46:17;;;;;;;19.38;15.38;;;;;;;9.39;100.00;99624.91;5052208;28;20481;-52
2023/04/01 09:49:01;;;;;;;17.20;14.18;;;;;;;9.35;100.00;99625.72;5052816;28;20071;-53
2023/04/01 09:51:57;;;;;;;19.92;15.65;;;;;;;9.44;100.00;99631.00;5052891;28;20056;-53
2023/04/01 09:54:25;;;;;;;22.27;15.77;;;;;;;9.46;100.00;99628.44;5052289;28;20048;-53
2023/04/01 09:56:53;;;;;;;19.45;15.38;;;;;;;9.50;100.00;99640.50;5052691;28;20444;-53
2023/04/01 09:59:37;;;;;;;18.35;15.70;;;;;;;9.55;100.00;99639.75;5051866;28;20491;-52
2023/04/01 10:02:52;;;;;;;19.80;16.83;;;;;;;9.51;100.00;99632.78;5052204;28;20049;-53
2023/04/01 10:05:26;;;;;;;21.58;17.85;;;;;;;9.46;100.00;99644.72;5052432;28;20040;-52
2023/04/01 10:07:58;;;;;;;21.05;17.85;;;;;;;9.37;100.00;99647.16;5052218;28;20070;-53
2023/04/01 10:10:36;;;;;;;21.75;17.75;;;;;;;9.40;100.00;99647.22;5052849;28;20025;-52
2023/04/01 10:13:20;;;;;;;20.23;18.02;;;;;;;9.51;100.00;99652.53;5052049;28;20112;-53
2023/04/01 10:16:16;;;;;;;19.92;17.08;;;;;;;9.49;100.00;99652.50;5052267;28;20029;-52
2023/04/01 10:19:12;;;;;;;19.80;17.45;;;;;;;9.47;100.00;99661.03;5052743;28;20021;-53
2023/04/01 10:22:15;;;;;;;19.77;17.80;;;;;;;9.45;100.00;99657.56;5051823;28;20036;-52
2023/04/01 10:25:11;;;;;;;22.00;18.05;;;;;;;9.43;100.00;99665.25;5052712;28;20033;-53
2023/04/01 10:27:58;;;;;;;21.25;19.17;;;;;;;9.43;100.00;99660.13;5052292;28;20116;-52
2023/04/01 10:30:48;;;;;;;21.92;19.73;;;;;;;9.44;100.00;99672.16;5052279;28;20035;-52
2023/04/01 10:33:59;;;;;;;22.30;19.92;;;;;;;9.60;100.00;99672.38;5052093;28;20519;-53
2023/04/01 10:36:53;;;;;;;24.65;21.70;;;;;;;9.74;100.00;99675.16;5051734;28;20033;-53
2023/04/01 10:39:56;;;;;;;21.33;19.13;;;;;;;9.72;100.00;99667.38;5052401;28;20112;-52
2023/04/01 10:42:40;;;;;;;19.27;17.30;;;;;;;9.60;100.00;99677.53;5051594;28;20029;-53
2023/04/01 10:45:33;;;;;;;21.60;19.38;;;;;;;9.53;100.00;99677.41;5052039;28;20025;-53
2023/04/01 10:48:17;;;;;;;24.98;22.33;;;;;;;9.43;100.00;99679.84;5052146;28;20119;-52
2023/04/01 10:51:06;;;;;;;26.63;23.25;;;;;;;9.51;100.00;99679.09;5052132;28;20126;-52
2023/04/01 10:53:59;;;;;;;27.85;23.83;;;;;;;9.51;100.00;99686.81;5052158;28;20388;-52
2023/04/01 10:57:02;;;;;;;24.73;21.17;;;;;;;9.41;100.00;99690.06;5051623;28;20039;-52
2023/04/01 10:59:52;;;;;;;25.75;22.05;;;;;;;9.23;100.00;99694.09;5052180;28;20025;-52
2023/04/01 11:02:54;;;;;;;27.92;24.00;;;;;;;9.27;100.00;99689.88;5051310;28;20057;-52
2023/04/01 11:05:59;;;;;;;24.05;20.73;;;;;;;9.23;100.00;99693.22;5052033;28;20078;-51
2023/04/01 11:09:05;;;;;;;27.15;22.80;;;;;;;9.22;100.00;99696.66;5054940;28;20057;-52
2023/04/01 11:12:07;;;;;;;26.35;22.83;;;;;;;9.27;100.00;99701.84;5055015;28;20021;-52
2023/04/01 11:14:53;;;;;;;28.88;23.23;;;;;;;9.17;100.00;99703.44;5055925;28;20115;-52
2023/04/01 11:17:57;;;;;;;28.10;24.33;;;;;;;9.12;100.00;99708.47;5054891;28;20082;-52
2023/04/01 11:20:45;;;;;;;30.10;25.20;;;;;;;9.05;100.00;99712.66;5055563;28;20457;-53
2023/04/01 11:23:32;;;;;;;32.63;27.67;;;;;;;9.02;100.00;99714.28;5055315;28;20033;-52
2023/04/01 11:26:08;;;;;;;31.52;26.80;;;;;;;8.96;100.00;99714.19;5055025;28;20036;-52
2023/04/01 11:28:33;;;;;;;32.38;27.35;;;;;;;8.95;100.00;99722.72;5055421;28;20024;-52
2023/04/01 11:31:17;;;;;;;33.47;27.83;;;;;;;8.98;100.00;99727.94;5054730;28;20021;-52
2023/04/01 11:33:57;;;;;;;37.47;27.73;;;;;;;8.94;100.00;99721.88;5055245;28;20385;-53
2023/04/01 11:36:47;;;;;;;33.33;28.08;;;;;;;9.00;100.00;99729.69;5055301;28;20032;-51
2023/04/01 11:39:36;;;;;;;35.42;29.33;;;;;;;9.05;100.00;99740.91;5054026;28;20480;-53
2023/04/01 11:42:17;;;;;;;36.25;28.77;;;;;;;9.11;100.00;99735.00;5055118;28;20184;-52
2023/04/01 11:44:58;;;;;;;30.85;25.30;;;;;;;9.12;100.00;99734.19;5054599;28;20017;-52
2023/04/01 11:48:06;;;;;;;29.63;24.52;;;;;;;9.21;100.00;99742.03;5054869;28;20029;-52
2023/04/01 11:51:06;;;;;;;28.60;23.67;;;;;;;9.35;100.00;99744.84;5055127;28;20025;-52
2023/04/01 11:53:56;;;;;;;27.85;24.08;;;;;;;9.42;100.00;99743.25;5054680;28;20039;-53
2023/04/01 11:56:35;;;;;;;25.45;21.95;;;;;;;9.43;100.00;99757.84;5055221;28;20057;-53
2023/04/01 11:59:29;;;;;;;26.63;22.83;;;;;;;9.46;100.00;99763.03;5054142;28;20029;-52
2023/04/01 12:02:36;;;;;;;28.20;22.80;;;;;;;9.54;100.00;99764.03;5054245;28;20527;-52